createdAt,value
2023-03-11T00:00:36.862Z,3.67
2023-03-11T00:03:06.246Z,3.78
2023-03-11T00:05:38.988Z,3.58
2023-03-11T00:08:09.083Z,3.59
2023-03-11T00:10:40.042Z,3.55
2023-03-11T00:13:12.225Z,3.92
2023-03-11T00:15:40.615Z,4.17
2023-03-11T00:18:08.264Z,4.30
2023-03-11T00:20:39.514Z,4.51
2023-03-11T00:23:08.569Z,4.57
2023-03-11T00:25:38.699Z,4.75
2023-03-11T00:28:11.428Z,4.82
2023-03-11T00:30:40.957Z,4.91
2023-03-11T00:33:11.147Z,5.01
2023-03-11T00:35:41.444Z,5.07
2023-03-11T00:38:14.055Z,5.14
2023-03-11T00:40:41.739Z,5.22
2023-03-11T00:43:09.459Z,5.35
2023-03-11T00:45:37.320Z,5.46
2023-03-11T00:48:05.765Z,5.48
2023-03-11T00:50:35.309Z,5.55
2023-03-11T00:53:03.637Z,5.65
2023-03-11T00:55:33.604Z,5.68
2023-03-11T00:58:06.115Z,5.78
2023-03-11T01:00:59.605Z,5.87
2023-03-11T01:03:27.381Z,5.99
2023-03-11T01:05:54.890Z,5.96
2023-03-11T01:08:22.876Z,6.03
2023-03-11T01:10:50.508Z,6.10
2023-03-11T01:13:19.644Z,6.16
2023-03-11T01:15:47.496Z,6.32
2023-03-11T01:18:16.322Z,6.30
2023-03-11T01:20:43.923Z,6.24
2023-03-11T01:23:12.922Z,6.36
2023-03-11T01:25:40.680Z,6.38
2023-03-11T01:28:11.559Z,6.42
2023-03-11T01:30:41.818Z,6.40
2023-03-11T01:33:13.773Z,6.50
2023-03-11T01:35:42.627Z,6.48
2023-03-11T01:38:11.600Z,6.59
2023-03-11T01:40:42.533Z,6.67
2023-03-11T01:43:37.332Z,6.77
2023-03-11T01:47:00.344Z,6.83
2023-03-11T01:49:32.807Z,6.76
2023-03-11T01:52:08.149Z,6.75
2023-03-11T01:54:43.013Z,6.71
2023-03-11T01:57:13.819Z,6.74
2023-03-11T01:59:47.594Z,6.68
2023-03-11T02:02:24.073Z,6.83
2023-03-11T02:04:52.591Z,6.74
2023-03-11T02:07:23.797Z,6.66
2023-03-11T02:09:52.059Z,6.68
2023-03-11T02:12:20.051Z,6.63
2023-03-11T02:14:51.730Z,6.68
2023-03-11T02:17:20.228Z,6.60
2023-03-11T02:20:06.692Z,6.73
2023-03-11T02:22:35.283Z,6.55
2023-03-11T02:25:27.727Z,6.79
2023-03-11T02:28:01.400Z,6.65
2023-03-11T02:30:29.735Z,6.75
2023-03-11T02:32:57.929Z,6.53
2023-03-11T02:35:26.358Z,6.31
2023-03-11T02:37:56.200Z,6.39
2023-03-11T02:40:24.217Z,6.38
2023-03-11T02:42:59.346Z,6.38
2023-03-11T02:45:32.494Z,6.29
2023-03-11T02:48:01.658Z,6.25
2023-03-11T02:50:32.429Z,6.18
2023-03-11T02:53:00.801Z,5.96
2023-03-11T02:55:29.379Z,5.99
2023-03-11T02:57:58.033Z,6.10
2023-03-11T03:00:26.178Z,6.10
2023-03-11T03:02:59.500Z,5.93
2023-03-11T03:05:28.376Z,5.91
2023-03-11T03:07:57.575Z,5.97
2023-03-11T03:10:25.588Z,5.92
2023-03-11T03:12:53.217Z,5.73
2023-03-11T03:15:20.996Z,5.78
2023-03-11T03:17:49.044Z,5.66
2023-03-11T03:20:16.821Z,5.60
2023-03-11T03:22:50.685Z,5.53
2023-03-11T03:25:21.112Z,5.55
2023-03-11T03:27:49.872Z,5.46
2023-03-11T03:30:17.749Z,5.60
2023-03-11T03:32:47.957Z,5.55
2023-03-11T03:35:18.620Z,5.62
2023-03-11T03:38:09.140Z,5.27
2023-03-11T03:40:38.609Z,5.32
2023-03-11T03:43:07.483Z,5.30
2023-03-11T03:45:36.732Z,5.07
2023-03-11T03:48:04.850Z,5.01
2023-03-11T03:50:36.325Z,5.05
2023-03-11T03:53:03.978Z,5.03
2023-03-11T03:55:32.075Z,5.08
2023-03-11T03:58:00.537Z,5.03
2023-03-11T04:00:32.967Z,5.03
2023-03-11T04:03:03.573Z,5.04
2023-03-11T04:05:39.895Z,5.06
2023-03-11T04:08:07.390Z,4.82
2023-03-11T04:10:35.559Z,4.92
2023-03-11T04:13:04.149Z,4.97
2023-03-11T04:15:32.197Z,4.99
2023-03-11T04:17:59.830Z,5.05
2023-03-11T04:20:27.805Z,5.12
2023-03-11T04:22:55.398Z,5.15
2023-03-11T04:25:25.021Z,5.18
2023-03-11T04:27:52.879Z,5.14
2023-03-11T04:30:21.755Z,5.00
2023-03-11T04:32:53.428Z,4.98
2023-03-11T04:35:21.165Z,4.96
2023-03-11T04:37:49.094Z,4.84
2023-03-11T04:40:17.057Z,4.89
2023-03-11T04:42:45.512Z,4.97
2023-03-11T04:45:13.754Z,5.06
2023-03-11T04:47:43.326Z,5.14
2023-03-11T04:50:11.254Z,5.17
2023-03-11T04:52:39.530Z,5.14
2023-03-11T04:55:08.194Z,5.12
2023-03-11T04:57:35.937Z,4.96
2023-03-11T05:00:16.029Z,5.02
2023-03-11T05:02:48.408Z,5.04
2023-03-11T05:05:22.095Z,5.08
2023-03-11T05:07:49.688Z,5.33
2023-03-11T05:10:22.874Z,5.18
2023-03-11T05:12:54.222Z,5.12
2023-03-11T05:15:24.796Z,5.18
2023-03-11T05:17:52.646Z,5.15
2023-03-11T05:20:20.993Z,5.26
2023-03-11T05:22:48.836Z,5.34
2023-03-11T05:25:16.913Z,5.28
2023-03-11T05:27:45.055Z,5.16
2023-03-11T05:30:15.740Z,5.25
2023-03-11T05:32:45.099Z,5.27
2023-03-11T05:35:13.510Z,5.37
2023-03-11T05:37:41.583Z,5.52
2023-03-11T05:40:12.544Z,6.10
2023-03-11T05:42:42.075Z,6.83
2023-03-11T05:45:12.328Z,7.63
2023-03-11T05:47:42.677Z,8.44
2023-03-11T05:50:13.409Z,9.52
2023-03-11T05:52:42.209Z,10.45
2023-03-11T05:55:12.697Z,11.26
2023-03-11T05:57:42.952Z,11.97
2023-03-11T06:00:14.418Z,12.25
2023-03-11T06:02:44.178Z,12.21
2023-03-11T06:05:15.562Z,12.21
2023-03-11T06:07:45.248Z,12.19
2023-03-11T06:10:13.148Z,12.08
2023-03-11T06:12:41.043Z,11.96
2023-03-11T06:15:14.238Z,11.77
2023-03-11T06:17:42.976Z,11.63
2023-03-11T06:20:11.293Z,11.40
2023-03-11T06:22:40.300Z,11.28
2023-03-11T06:25:09.796Z,11.06
2023-03-11T06:27:40.112Z,10.96
2023-03-11T06:30:09.011Z,10.85
2023-03-11T06:32:49.769Z,10.79
2023-03-11T06:35:17.460Z,10.67
2023-03-11T06:37:44.992Z,10.77
2023-03-11T06:40:14.231Z,10.74
2023-03-11T06:42:42.297Z,10.77
2023-03-11T06:45:12.173Z,10.70
2023-03-11T06:47:42.111Z,10.61
2023-03-11T06:50:11.128Z,10.77
2023-03-11T06:52:38.880Z,10.65
2023-03-11T06:55:09.637Z,10.57
2023-03-11T06:57:38.202Z,10.41
2023-03-11T07:00:12.863Z,10.35
2023-03-11T07:02:43.428Z,10.47
2023-03-11T07:05:12.999Z,11.22
2023-03-11T07:07:40.902Z,11.96
2023-03-11T07:10:08.910Z,12.20
2023-03-11T07:12:36.854Z,12.21
2023-03-11T07:15:05.270Z,12.06
2023-03-11T07:17:36.227Z,11.88
2023-03-11T07:20:04.990Z,11.66
2023-03-11T07:22:32.665Z,11.39
2023-03-11T07:25:00.394Z,11.32
2023-03-11T07:27:28.611Z,11.14
2023-03-11T07:29:56.243Z,10.99
2023-03-11T07:32:25.277Z,11.16
2023-03-11T07:34:52.917Z,11.25
2023-03-11T07:37:20.475Z,11.31
2023-03-11T07:39:47.971Z,11.30
2023-03-11T07:42:15.484Z,11.30
2023-03-11T07:44:42.974Z,11.31
2023-03-11T07:47:10.646Z,11.20
2023-03-11T07:49:39.558Z,11.13
2023-03-11T07:52:07.425Z,11.00
2023-03-11T07:54:36.423Z,10.88
2023-03-11T07:57:04.067Z,10.67
2023-03-11T07:59:31.527Z,10.53
2023-03-11T08:01:59.144Z,10.37
2023-03-11T08:04:26.698Z,10.32
2023-03-11T08:06:54.308Z,10.32
2023-03-11T08:09:21.959Z,10.39
2023-03-11T08:11:49.820Z,10.40
2023-03-11T08:14:17.753Z,10.45
2023-03-11T08:16:45.389Z,10.44
2023-03-11T08:19:13.664Z,10.46
2023-03-11T08:21:41.351Z,10.41
2023-03-11T08:24:13.060Z,10.45
2023-03-11T08:26:41.349Z,10.28
2023-03-11T08:29:08.923Z,10.25
2023-03-11T08:31:36.613Z,10.19
2023-03-11T08:34:12.561Z,10.29
2023-03-11T08:36:40.204Z,10.07
2023-03-11T08:39:07.878Z,9.93
2023-03-11T08:41:35.969Z,9.89
2023-03-11T08:44:03.702Z,9.49
2023-03-11T08:46:32.880Z,9.47
2023-03-11T08:49:01.664Z,9.35
2023-03-11T08:51:31.208Z,9.25
2023-03-11T08:53:59.805Z,9.14
2023-03-11T08:56:28.095Z,9.22
2023-03-11T08:58:55.838Z,9.28
2023-03-11T09:01:24.070Z,9.31
2023-03-11T09:03:52.124Z,9.32
2023-03-11T09:06:20.193Z,9.30
2023-03-11T09:08:49.284Z,9.38
2023-03-11T09:11:18.135Z,9.35
2023-03-11T09:13:45.694Z,9.42
2023-03-11T09:16:16.448Z,9.48
2023-03-11T09:18:44.330Z,9.43
2023-03-11T09:21:12.627Z,9.43
2023-03-11T09:23:43.863Z,9.43
2023-03-11T09:26:13.236Z,9.37
2023-03-11T09:28:41.801Z,9.24
2023-03-11T09:31:09.857Z,9.07
2023-03-11T09:33:42.742Z,9.03
2023-03-11T09:36:15.326Z,8.95
2023-03-11T09:38:43.126Z,8.75
2023-03-11T09:41:30.861Z,8.70
2023-03-11T09:44:13.080Z,8.75
2023-03-11T09:47:04.337Z,8.71
2023-03-11T09:49:46.258Z,8.55
2023-03-11T09:52:25.184Z,8.44
2023-03-11T09:54:54.539Z,8.37
2023-03-11T09:57:31.817Z,8.35
2023-03-11T10:00:02.353Z,8.34
2023-03-11T10:02:40.979Z,8.33
2023-03-11T10:05:26.212Z,8.50
2023-03-11T10:08:25.450Z,8.50
2023-03-11T10:11:05.132Z,8.48
2023-03-11T10:13:46.207Z,8.49
2023-03-11T10:16:27.717Z,8.54
2023-03-11T10:19:32.900Z,8.67
2023-03-11T10:22:27.714Z,8.69
2023-03-11T10:25:01.029Z,8.63
2023-03-11T10:27:43.631Z,8.67
2023-03-11T10:30:27.471Z,8.70
2023-03-11T10:33:32.065Z,8.80
2023-03-11T10:36:04.746Z,8.64
2023-03-11T10:38:36.610Z,8.50
2023-03-11T10:41:11.436Z,8.49
2023-03-11T10:43:45.673Z,8.43
2023-03-11T10:46:24.419Z,8.38
2023-03-11T10:48:52.004Z,8.21
2023-03-11T10:51:27.063Z,8.26
2023-03-11T10:53:57.765Z,8.17
2023-03-11T10:56:32.858Z,8.07
2023-03-11T10:59:02.052Z,7.89
2023-03-11T11:01:30.684Z,7.82
2023-03-11T11:04:01.238Z,7.80
2023-03-11T11:06:31.975Z,7.84
2023-03-11T11:09:16.460Z,7.95
2023-03-11T11:12:02.180Z,7.93
2023-03-11T11:14:51.035Z,7.87
2023-03-11T11:17:32.083Z,7.78
2023-03-11T11:20:01.457Z,7.50
2023-03-11T11:22:32.595Z,7.50
2023-03-11T11:25:00.202Z,7.49
2023-03-11T11:27:29.654Z,7.55
2023-03-11T11:30:15.325Z,7.58
2023-03-11T11:32:43.090Z,7.40
2023-03-11T11:35:19.890Z,7.43
2023-03-11T11:38:02.313Z,7.35
2023-03-11T11:40:32.401Z,7.40
2023-03-11T11:43:06.868Z,7.37
2023-03-11T11:45:43.552Z,7.38
2023-03-11T11:48:25.884Z,7.37
2023-03-11T11:51:00.576Z,7.24
2023-03-11T11:53:47.059Z,7.26
2023-03-11T11:56:15.016Z,6.92
2023-03-11T11:58:42.681Z,6.77
2023-03-11T12:01:28.974Z,6.79
2023-03-11T12:04:07.034Z,6.73
2023-03-11T12:06:37.846Z,6.61
2023-03-11T12:09:24.469Z,6.63
2023-03-11T12:12:08.502Z,6.32
2023-03-11T12:15:07.784Z,6.59
2023-03-11T12:17:40.405Z,6.31
2023-03-11T12:20:16.005Z,6.28
2023-03-11T12:23:15.327Z,6.34
2023-03-11T12:26:10.762Z,6.17
2023-03-11T12:28:55.527Z,6.17
2023-03-11T12:31:27.790Z,5.83
2023-03-11T12:34:05.160Z,5.84
2023-03-11T12:36:36.571Z,5.79
2023-03-11T12:39:07.520Z,5.78
2023-03-11T12:41:40.186Z,5.60
2023-03-11T12:44:24.723Z,5.64
2023-03-11T12:46:58.098Z,5.59
2023-03-11T12:49:27.013Z,5.54
2023-03-11T12:52:09.695Z,5.56
2023-03-11T12:54:42.677Z,5.39
2023-03-11T12:57:32.934Z,5.38
2023-03-11T13:00:12.616Z,5.28
2023-03-11T13:02:51.133Z,5.13
2023-03-11T13:05:53.579Z,5.31
2023-03-11T13:08:33.874Z,5.12
2023-03-11T13:11:01.394Z,5.05
2023-03-11T13:13:31.783Z,5.21
2023-03-11T13:16:19.426Z,5.22
2023-03-11T13:18:52.135Z,4.87
2023-03-11T13:21:28.541Z,4.72
2023-03-11T13:24:26.225Z,4.83
2023-03-11T13:27:05.000Z,4.71
2023-03-11T13:30:00.597Z,4.84
2023-03-11T13:33:00.445Z,4.90
2023-03-11T13:35:52.022Z,4.63
2023-03-11T13:38:35.596Z,4.76
2023-03-11T13:41:04.979Z,4.48
2023-03-11T13:43:33.103Z,4.34
2023-03-11T13:46:07.892Z,4.45
2023-03-11T13:48:45.427Z,4.46
2023-03-11T13:51:28.399Z,4.32
2023-03-11T13:54:20.459Z,4.26
2023-03-11T13:56:54.348Z,4.24
2023-03-11T13:59:23.491Z,4.49
2023-03-11T14:01:52.527Z,3.98
2023-03-11T14:04:41.138Z,4.06
2023-03-11T14:07:26.281Z,3.88
2023-03-11T14:10:12.442Z,3.93
2023-03-11T14:12:40.076Z,3.62
2023-03-11T14:15:17.672Z,3.77
2023-03-11T14:17:47.081Z,3.66
2023-03-11T14:20:20.417Z,3.70
2023-03-11T14:22:51.836Z,3.56
2023-03-11T14:25:26.659Z,3.56
2023-03-11T14:28:03.722Z,3.41
2023-03-11T14:30:34.370Z,3.28
2023-03-11T14:33:19.067Z,3.22
2023-03-11T14:35:58.181Z,3.25
2023-03-11T14:38:29.367Z,3.13
2023-03-11T14:41:07.393Z,3.20
2023-03-11T14:43:40.626Z,3.06
2023-03-11T14:46:10.096Z,2.92
2023-03-11T14:48:44.348Z,3.00
2023-03-11T14:51:20.538Z,2.95
2023-03-11T14:54:11.338Z,2.80
2023-03-11T14:56:43.492Z,2.81
2023-03-11T14:59:29.235Z,2.94
2023-03-11T15:02:00.184Z,2.70
2023-03-11T15:04:38.191Z,2.67
2023-03-11T15:07:07.168Z,2.67
2023-03-11T15:09:40.780Z,2.66
2023-03-11T15:12:28.592Z,2.40
2023-03-11T15:14:56.194Z,2.37
2023-03-11T15:17:42.800Z,2.30
2023-03-11T15:20:37.893Z,2.53
2023-03-11T15:23:08.058Z,2.34
2023-03-11T15:25:38.931Z,2.40
2023-03-11T15:28:25.590Z,2.39
2023-03-11T15:31:15.860Z,2.46
2023-03-11T15:33:44.014Z,2.21
2023-03-11T15:36:34.954Z,2.25
2023-03-11T15:39:18.552Z,2.22
2023-03-11T15:42:01.369Z,2.09
2023-03-11T15:44:33.602Z,1.97
2023-03-11T15:47:01.289Z,1.82
2023-03-11T15:49:30.177Z,1.87
2023-03-11T15:52:02.035Z,1.90
2023-03-11T15:54:30.115Z,1.78
2023-03-11T15:57:01.053Z,1.83
2023-03-11T15:59:29.383Z,1.54
2023-03-11T16:01:56.993Z,1.62
2023-03-11T16:04:24.826Z,1.67
2023-03-11T16:07:07.076Z,1.62
2023-03-11T16:09:35.782Z,1.64
2023-03-11T16:12:14.143Z,1.68
2023-03-11T16:14:41.725Z,1.53
2023-03-11T16:17:09.330Z,1.55
2023-03-11T16:19:36.886Z,1.53
2023-03-11T16:22:06.522Z,1.47
2023-03-11T16:24:34.220Z,1.44
2023-03-11T16:27:01.813Z,1.41
2023-03-11T16:29:29.494Z,1.40
2023-03-11T16:31:57.043Z,1.39
2023-03-11T16:34:24.636Z,1.35
2023-03-11T16:36:52.703Z,1.30
2023-03-11T16:39:20.287Z,1.27
2023-03-11T16:41:47.903Z,1.26
2023-03-11T16:44:15.629Z,1.22
2023-03-11T16:46:43.261Z,1.25
2023-03-11T16:49:10.883Z,1.24
2023-03-11T16:51:38.569Z,1.15
2023-03-11T16:54:07.644Z,1.16
2023-03-11T16:56:36.256Z,1.20
2023-03-11T16:59:04.678Z,1.18
2023-03-11T17:01:32.800Z,1.17
2023-03-11T17:04:00.783Z,1.27
2023-03-11T17:06:28.594Z,1.10
2023-03-11T17:08:56.227Z,1.08
2023-03-11T17:11:25.187Z,1.06
2023-03-11T17:13:55.410Z,1.09
2023-03-11T17:16:26.668Z,1.01
2023-03-11T17:18:55.922Z,0.96
2023-03-11T17:21:23.382Z,0.93
2023-03-11T17:23:51.927Z,0.87
2023-03-11T17:26:19.848Z,0.87
2023-03-11T17:28:48.001Z,0.89
2023-03-11T17:31:16.910Z,0.88
2023-03-11T17:33:45.311Z,0.90
2023-03-11T17:36:16.700Z,0.89
2023-03-11T17:38:46.290Z,0.79
2023-03-11T17:41:17.026Z,0.81
2023-03-11T17:43:45.433Z,0.77
2023-03-11T17:46:18.749Z,0.81
2023-03-11T17:48:49.013Z,0.68
2023-03-11T17:51:22.640Z,0.60
2023-03-11T17:53:50.601Z,0.53
2023-03-11T17:56:21.055Z,0.62
2023-03-11T17:58:50.223Z,0.62
2023-03-11T18:01:23.509Z,0.66
2023-03-11T18:03:51.616Z,0.62
2023-03-11T18:06:20.288Z,0.60
2023-03-11T18:08:48.017Z,0.46
2023-03-11T18:11:19.210Z,0.51
2023-03-11T18:13:47.203Z,0.45
2023-03-11T18:16:20.480Z,0.47
2023-03-11T18:18:48.598Z,0.34
2023-03-11T18:21:19.165Z,0.43
2023-03-11T18:23:47.766Z,0.37
2023-03-11T18:26:17.941Z,0.34
2023-03-11T18:28:46.132Z,0.29
2023-03-11T18:31:17.937Z,0.27
2023-03-11T18:33:57.424Z,0.38
2023-03-11T18:36:28.045Z,0.30
2023-03-11T18:38:57.522Z,0.30
2023-03-11T18:41:26.163Z,0.25
2023-03-11T18:43:57.497Z,0.20
2023-03-11T18:46:26.780Z,0.19
2023-03-11T18:48:57.732Z,0.24
2023-03-11T18:51:30.341Z,0.27
2023-03-11T18:53:58.204Z,0.17
2023-03-11T18:56:25.873Z,0.13
2023-03-11T18:58:56.316Z,0.10
2023-03-11T19:01:24.149Z,0.10
2023-03-11T19:03:54.479Z,0.15
2023-03-11T19:06:22.860Z,0.16
2023-03-11T19:08:50.631Z,0.14
2023-03-11T19:11:20.483Z,0.12
2023-03-11T19:13:48.477Z,0.10
2023-03-11T19:16:19.314Z,0.10
2023-03-11T19:18:47.942Z,0.02
2023-03-11T19:21:16.637Z,0.03
2023-03-11T19:23:45.203Z,0.03
2023-03-11T19:26:13.639Z,-0.07
2023-03-11T19:28:43.679Z,-0.02
2023-03-11T19:31:12.916Z,-0.07
2023-03-11T19:33:41.349Z,-0.08
2023-03-11T19:36:09.531Z,-0.10
2023-03-11T19:38:37.126Z,-0.13
2023-03-11T19:41:08.636Z,-0.09
2023-03-11T19:43:37.181Z,-0.15
2023-03-11T19:46:06.458Z,-0.18
2023-03-11T19:48:34.491Z,-0.21
2023-03-11T19:51:06.318Z,-0.22
2023-03-11T19:53:36.128Z,-0.32
2023-03-11T19:56:05.099Z,-0.18
2023-03-11T19:58:35.334Z,-0.20
2023-03-11T20:01:03.803Z,-0.22
2023-03-11T20:03:32.059Z,-0.15
2023-03-11T20:06:05.949Z,-0.14
2023-03-11T20:08:36.974Z,0.12
2023-03-11T20:11:05.381Z,0.20
2023-03-11T20:13:33.768Z,0.23
2023-03-11T20:16:05.974Z,0.24
2023-03-11T20:18:33.349Z,0.26
2023-03-11T20:21:04.252Z,0.22
2023-03-11T20:23:31.481Z,0.18
2023-03-11T20:25:58.945Z,0.17
2023-03-11T20:28:26.233Z,0.17
2023-03-11T20:30:54.676Z,0.14
2023-03-11T20:33:21.963Z,0.14
2023-03-11T20:35:49.410Z,0.05
2023-03-11T20:38:18.212Z,0.06
2023-03-11T20:40:45.694Z,0.07
2023-03-11T20:43:13.111Z,0.01
2023-03-11T20:45:40.561Z,0.03
2023-03-11T20:48:07.897Z,0.03
2023-03-11T20:50:35.235Z,0.05
2023-03-11T20:53:02.686Z,0.07
2023-03-11T20:55:29.984Z,0.07
2023-03-11T20:57:57.254Z,0.06
2023-03-11T21:00:24.674Z,0.05
2023-03-11T21:02:52.212Z,0.07
2023-03-11T21:05:19.689Z,0.07
2023-03-11T21:07:48.260Z,0.08
2023-03-11T21:10:15.940Z,0.06
2023-03-11T21:12:43.180Z,0.05
2023-03-11T21:15:10.938Z,0.01
2023-03-11T21:17:38.647Z,-0.03
2023-03-11T21:20:06.704Z,-0.06
2023-03-11T21:22:34.070Z,-0.05
2023-03-11T21:25:01.575Z,-0.07
2023-03-11T21:27:28.984Z,-0.07
2023-03-11T21:29:56.845Z,-0.12
2023-03-11T21:32:24.870Z,-0.20
2023-03-11T21:34:54.913Z,-0.23
2023-03-11T21:37:22.269Z,-0.23
2023-03-11T21:39:49.660Z,-0.19
2023-03-11T21:42:17.125Z,-0.19
2023-03-11T21:44:44.481Z,-0.19
2023-03-11T21:47:11.833Z,-0.18
2023-03-11T21:49:39.429Z,-0.19
2023-03-11T21:52:07.032Z,-0.20
2023-03-11T21:54:34.323Z,-0.20
2023-03-11T21:57:01.885Z,-0.21
2023-03-11T21:59:30.029Z,-0.20
2023-03-11T22:02:01.566Z,-0.20
2023-03-11T22:04:29.764Z,-0.21
2023-03-11T22:06:57.533Z,-0.23
2023-03-11T22:09:26.458Z,-0.36
2023-03-11T22:11:54.311Z,-0.28
2023-03-11T22:14:22.121Z,-0.30
2023-03-11T22:16:49.522Z,-0.33
2023-03-11T22:19:16.978Z,-0.40
2023-03-11T22:21:44.364Z,-0.40
2023-03-11T22:24:11.878Z,-0.43
2023-03-11T22:26:39.226Z,-0.43
2023-03-11T22:29:08.835Z,-0.43
2023-03-11T22:31:36.378Z,-0.39
2023-03-11T22:34:03.654Z,-0.37
2023-03-11T22:36:31.042Z,-0.40
2023-03-11T22:38:58.507Z,-0.35
2023-03-11T22:41:25.739Z,-0.34
2023-03-11T22:43:53.070Z,-0.33
2023-03-11T22:46:20.370Z,-0.32
2023-03-11T22:48:47.737Z,-0.33
2023-03-11T22:51:15.305Z,-0.33
2023-03-11T22:53:42.570Z,-0.36
2023-03-11T22:56:11.465Z,-0.37
2023-03-11T22:58:39.091Z,-0.36
2023-03-11T23:01:06.515Z,-0.36
2023-03-11T23:03:34.297Z,-0.36
2023-03-11T23:06:03.333Z,-0.35
2023-03-11T23:08:30.725Z,-0.35
2023-03-11T23:11:01.713Z,-0.36
2023-03-11T23:13:29.001Z,-0.37
2023-03-11T23:15:56.307Z,-0.40
2023-03-11T23:18:23.643Z,-0.42
2023-03-11T23:20:50.971Z,-0.47
2023-03-11T23:23:18.319Z,-0.45
2023-03-11T23:25:45.572Z,-0.49
2023-03-11T23:28:12.860Z,-0.54
2023-03-11T23:30:40.922Z,-0.53
2023-03-11T23:33:08.618Z,-0.52
2023-03-11T23:35:40.018Z,-0.53
2023-03-11T23:38:07.553Z,-0.55
2023-03-11T23:40:34.819Z,-0.58
2023-03-11T23:43:02.183Z,-0.57
2023-03-11T23:45:29.454Z,-0.60
2023-03-11T23:47:56.823Z,-0.65
2023-03-11T23:50:24.136Z,-0.73
2023-03-11T23:52:51.425Z,-0.78
2023-03-11T23:55:18.784Z,-0.78
2023-03-11T23:57:46.236Z,-0.78
